Airfield :
LOGIN :

Register | Disclaimer

   EN    FR    IT 

 










Legend :    VFR   Marginal VFR   IFR   Intensive IFR   Very Intensive IFR
Visi :
Ceiling :
>= 8 km
>= 3000ft
5 to 8 km
1000 to 3000 ft
1500m to 5 km
500 to 1000 ft
800 to 1500m
200 to 500 ft
< 800m
< 200 ft
Symbols :   Thunderstorms  Fog  Heavy snow  Heavy precipitations  Wind > 20 kt
SIGMETs :     Misc.  Thunderstorms  Icing  Turbulence  Mountain Waves  Volcanic Ashes







- Airport Elevation : 83 ft
- IATA code : LHR
- Download approach charts


EGLL - London Heathrow

CURRENT METAR :
  • 201650Z AUTO 05007KT 360V080 9999 NCD 23/05 Q1027 NOSIG

EXPIRED METARs :
  • 201620Z AUTO 03006KT 320V090 9999 NCD 24/04 Q1027
  • 201550Z AUTO 08006KT 050V130 9999 NCD 24/05 Q1028 NOSIG
  • 201520Z AUTO VRB03KT 9999 NCD 24/06 Q1028
  • 201450Z AUTO 09007KT 020V130 9999 NCD 24/05 Q1028 NOSIG
  • 201420Z AUTO 08005KT 030V110 9999 NCD 24/06 Q1028 NOSIG
  • 201350Z AUTO 11006KT 070V150 9999 NCD 24/07 Q1029

TAF TAF EGLL
Valid from the 20 at 12:00 until the 21 at 18:00 UTC


201056Z 2012/2118 06006KT CAVOK
BECMG 2100/2103 7000
PROB30 2104/2108 4000 HZ
BECMG 2106/2109 CAVOK
BECMG 2113/2116 12010KT
No reported NOTAMs for that airfield.



MET'MAP, your aeronautical weather chart ! - Copyright ORBIFLY December 2007 - Disclaimer

ORBIFLY MET'MAP TEAM :

Programming & Development : Alexandra Zaïnal
Concept & Development : Baudouin d'Aumeries
Co-Development & Prog : Marc-Olivier Méhu
Technical & hardware support : Manuel Goepfert

Contact : metmap@orbifly.com




SOURCES & CREDITS :

   NOAA